Time;durP1;ratioP1;P1;durP2;ratioP2;P2;SDS_P1;SDS_P2;PMS_P1;PMS_P2;Temp;Humidity;BMP_temperature;BMP_pressure;BME280_temperature;BME280_humidity;BME280_pressure;Samples;Min_cycle;Max_cycle;Signal;HPM_P1;HPM_P2
2022/06/30 00:00:44;;;;;;;7.17;4.30;;;;;;;;;;4986805;28;20062;-61
2022/06/30 00:03:10;;;;;;;9.33;4.20;;;;;;;;;;4988356;28;20077;-61
2022/06/30 00:05:37;;;;;;;4.83;3.80;;;;;;;;;;4987471;28;20074;-61
2022/06/30 00:08:03;;;;;;;8.03;3.97;;;;;;;;;;4987106;28;20049;-61
2022/06/30 00:10:29;;;;;;;5.83;4.63;;;;;;;;;;4987843;28;20133;-61
2022/06/30 00:12:56;;;;;;;7.90;5.00;;;;;;;;;;4986342;28;20052;-61
2022/06/30 00:15:22;;;;;;;5.63;3.63;;;;;;;;;;4986700;28;20461;-60
2022/06/30 00:17:48;;;;;;;5.13;4.03;;;;;;;;;;4986124;28;20048;-61
2022/06/30 00:20:14;;;;;;;6.73;4.73;;;;;;;;;;4986414;28;20154;-60
2022/06/30 00:22:40;;;;;;;5.73;4.53;;;;;;;;;;4986452;28;20141;-61
2022/06/30 00:25:06;;;;;;;6.73;4.10;;;;;;;;;;4986317;28;20074;-61
2022/06/30 00:27:32;;;;;;;5.37;3.40;;;;;;;;;;4987628;28;20050;-61
2022/06/30 00:29:59;;;;;;;5.37;4.23;;;;;;;;;;4988507;28;20137;-61
2022/06/30 00:32:25;;;;;;;7.23;4.30;;;;;;;;;;4988878;28;20180;-61
2022/06/30 00:34:51;;;;;;;4.80;3.63;;;;;;;;;;4989029;28;20046;-61
2022/06/30 00:37:17;;;;;;;6.50;3.70;;;;;;;;;;4988635;28;20056;-60
2022/06/30 00:39:43;;;;;;;3.93;3.33;;;;;;;;;;4988927;28;20060;-60
2022/06/30 00:42:09;;;;;;;4.83;3.37;;;;;;;;;;4988830;28;20054;-61
2022/06/30 00:44:35;;;;;;;8.03;3.50;;;;;;;;;;4988738;28;20077;-60
2022/06/30 00:47:01;;;;;;;8.37;3.57;;;;;;;;;;4988800;28;20488;-60
2022/06/30 00:49:28;;;;;;;5.40;4.23;;;;;;;;;;4988840;28;20047;-61
2022/06/30 00:51:54;;;;;;;6.53;3.77;;;;;;;;;;4988605;28;20054;-61
2022/06/30 00:54:22;;;;;;;11.07;3.57;;;;;;;;;;4988865;28;20182;-61
2022/06/30 00:56:48;;;;;;;7.17;3.47;;;;;;;;;;4988506;28;20042;-61
2022/06/30 00:59:16;;;;;;;4.23;3.00;;;;;;;;;;4988321;28;20133;-61
2022/06/30 01:01:45;;;;;;;6.60;4.10;;;;;;;;;;4991099;28;20047;-61
2022/06/30 01:04:14;;;;;;;6.80;3.93;;;;;;;;;;4992121;28;20051;-61
2022/06/30 01:06:42;;;;;;;8.17;3.77;;;;;;;;;;4992487;28;20061;-61
2022/06/30 01:09:09;;;;;;;5.60;3.50;;;;;;;;;;4992351;28;20043;-61
2022/06/30 01:14:20;;;;;;;7.27;3.40;;;;;;;;;;4992211;28;20051;-61
2022/06/30 01:16:46;;;;;;;5.33;4.17;;;;;;;;;;4992011;28;20539;-61
2022/06/30 01:19:15;;;;;;;8.00;3.50;;;;;;;;;;4992519;28;20054;-60
2022/06/30 01:21:57;;;;;;;7.20;3.50;;;;;;;;;;4991701;28;20536;-61
2022/06/30 01:24:23;;;;;;;4.83;3.43;;;;;;;;;;4991948;28;20054;-61
2022/06/30 01:26:55;;;;;;;7.73;3.93;;;;;;;;;;4992255;28;20405;-61
2022/06/30 01:29:21;;;;;;;4.37;3.70;;;;;;;;;;4991682;28;20054;-60
2022/06/30 01:31:47;;;;;;;7.17;3.63;;;;;;;;;;4992306;28;20050;-61
2022/06/30 01:34:13;;;;;;;5.93;3.87;;;;;;;;;;4992312;28;20412;-61
2022/06/30 01:36:39;;;;;;;7.10;4.17;;;;;;;;;;4992016;28;20053;-61
2022/06/30 01:39:05;;;;;;;5.90;3.53;;;;;;;;;;4990805;28;20050;-61
2022/06/30 01:41:31;;;;;;;7.83;4.40;;;;;;;;;;4991615;28;20071;-60
2022/06/30 01:43:57;;;;;;;5.80;3.80;;;;;;;;;;4991494;28;20049;-60
2022/06/30 01:46:23;;;;;;;6.50;3.83;;;;;;;;;;4991317;28;20393;-60
2022/06/30 01:48:49;;;;;;;6.23;3.80;;;;;;;;;;4991859;28;20042;-61
2022/06/30 01:51:15;;;;;;;7.63;4.07;;;;;;;;;;4991588;28;20042;-61
2022/06/30 01:53:41;;;;;;;5.43;4.40;;;;;;;;;;4991636;28;20125;-60
2022/06/30 01:56:07;;;;;;;8.63;4.63;;;;;;;;;;4991263;28;20077;-61
2022/06/30 01:58:33;;;;;;;5.13;4.37;;;;;;;;;;4991493;28;20050;-61
2022/06/30 02:00:59;;;;;;;4.83;4.33;;;;;;;;;;4991675;28;20042;-61
2022/06/30 02:03:25;;;;;;;5.57;4.37;;;;;;;;;;4991842;28;20408;-61
2022/06/30 02:05:51;;;;;;;7.00;5.60;;;;;;;;;;4991725;28;20046;-61
2022/06/30 02:08:17;;;;;;;6.93;4.87;;;;;;;;;;4991329;28;20048;-61
2022/06/30 02:10:43;;;;;;;7.70;4.73;;;;;;;;;;4991346;28;20042;-60
2022/06/30 02:13:09;;;;;;;5.80;4.87;;;;;;;;;;4991134;28;20054;-61
2022/06/30 02:15:36;;;;;;;6.00;4.70;;;;;;;;;;4991037;28;20038;-61
2022/06/30 02:18:04;;;;;;;7.47;6.17;;;;;;;;;;4991178;28;20129;-60
2022/06/30 02:20:30;;;;;;;8.10;5.43;;;;;;;;;;4990355;28;20050;-61
2022/06/30 02:22:57;;;;;;;8.60;4.90;;;;;;;;;;4991025;28;20058;-61
2022/06/30 02:25:24;;;;;;;7.73;5.43;;;;;;;;;;4990790;28;20057;-61
2022/06/30 02:27:50;;;;;;;8.20;6.57;;;;;;;;;;4990750;28;20057;-61
2022/06/30 02:30:17;;;;;;;6.70;5.87;;;;;;;;;;4990498;28;20125;-61
2022/06/30 02:32:43;;;;;;;10.80;6.10;;;;;;;;;;4991033;28;20093;-61
2022/06/30 02:35:10;;;;;;;6.13;5.50;;;;;;;;;;4990501;28;20053;-61
2022/06/30 02:37:36;;;;;;;6.77;5.57;;;;;;;;;;4990623;28;20056;-61
2022/06/30 02:40:02;;;;;;;6.87;5.73;;;;;;;;;;4990844;28;20693;-62
2022/06/30 02:42:28;;;;;;;8.10;6.00;;;;;;;;;;4990600;28;20039;-61
2022/06/30 02:44:54;;;;;;;6.73;5.13;;;;;;;;;;4990620;28;20042;-61
2022/06/30 02:47:20;;;;;;;7.57;5.30;;;;;;;;;;4990312;28;20051;-61
2022/06/30 02:49:47;;;;;;;6.87;6.00;;;;;;;;;;4990198;28;20057;-61
2022/06/30 02:52:13;;;;;;;10.60;6.27;;;;;;;;;;4990516;28;20046;-61
2022/06/30 02:54:39;;;;;;;8.97;5.70;;;;;;;;;;4990882;28;20051;-62
2022/06/30 02:57:05;;;;;;;7.47;5.73;;;;;;;;;;4990303;28;20049;-61
2022/06/30 02:59:31;;;;;;;8.43;5.43;;;;;;;;;;4990030;28;20060;-61
2022/06/30 03:01:57;;;;;;;6.57;5.73;;;;;;;;;;4990967;28;20093;-61
2022/06/30 03:04:23;;;;;;;7.00;6.30;;;;;;;;;;4990394;28;20043;-61
2022/06/30 03:06:49;;;;;;;9.13;6.27;;;;;;;;;;4990888;28;20050;-62
2022/06/30 03:09:15;;;;;;;7.60;6.00;;;;;;;;;;4990515;28;20042;-61
2022/06/30 03:11:41;;;;;;;6.23;5.30;;;;;;;;;;4982521;28;20097;-61
2022/06/30 03:14:07;;;;;;;6.43;5.27;;;;;;;;;;4972813;28;20053;-61
2022/06/30 03:16:33;;;;;;;8.10;6.13;;;;;;;;;;4990322;28;20038;-61
2022/06/30 03:18:59;;;;;;;6.77;5.73;;;;;;;;;;4989712;28;20046;-61
2022/06/30 03:21:25;;;;;;;9.70;5.77;;;;;;;;;;4989981;28;20062;-61
2022/06/30 03:23:51;;;;;;;9.97;5.90;;;;;;;;;;4989382;28;20554;-61
2022/06/30 03:26:18;;;;;;;6.37;5.23;;;;;;;;;;4989902;28;20181;-61
2022/06/30 03:28:44;;;;;;;7.13;6.07;;;;;;;;;;4989820;28;20086;-61
2022/06/30 03:31:10;;;;;;;9.03;5.80;;;;;;;;;;4989756;28;20125;-61
2022/06/30 03:33:37;;;;;;;7.53;5.93;;;;;;;;;;4989869;28;20058;-61
2022/06/30 03:36:03;;;;;;;9.90;6.43;;;;;;;;;;4989800;28;20050;-60
2022/06/30 03:38:29;;;;;;;7.27;5.70;;;;;;;;;;4989614;28;20050;-61
2022/06/30 03:40:55;;;;;;;8.97;5.93;;;;;;;;;;4989878;28;20181;-61
2022/06/30 03:43:21;;;;;;;7.07;5.83;;;;;;;;;;4989200;28;20050;-60
2022/06/30 03:45:48;;;;;;;7.47;6.13;;;;;;;;;;4989776;28;20182;-61
2022/06/30 03:48:14;;;;;;;8.20;5.87;;;;;;;;;;4989333;28;20165;-60
2022/06/30 03:50:40;;;;;;;10.07;6.27;;;;;;;;;;4989905;28;20042;-61
2022/06/30 03:53:06;;;;;;;6.70;5.50;;;;;;;;;;4989809;28;20046;-61
2022/06/30 03:55:33;;;;;;;8.93;5.70;;;;;;;;;;4989069;28;20054;-61
2022/06/30 03:57:59;;;;;;;9.10;5.83;;;;;;;;;;4971939;28;20579;-61
2022/06/30 04:00:25;;;;;;;7.33;5.83;;;;;;;;;;4989483;28;20048;-61
2022/06/30 04:02:51;;;;;;;6.57;5.83;;;;;;;;;;4989643;28;20493;-61
2022/06/30 04:05:17;;;;;;;7.00;6.03;;;;;;;;;;4989297;28;20050;-61
2022/06/30 04:07:44;;;;;;;7.87;6.03;;;;;;;;;;4989187;28;20054;-61
2022/06/30 04:10:11;;;;;;;16.93;6.80;;;;;;;;;;4989463;28;20046;-61
2022/06/30 04:12:37;;;;;;;6.63;5.70;;;;;;;;;;4989492;28;20050;-61
2022/06/30 04:15:04;;;;;;;7.47;6.50;;;;;;;;;;4989438;28;20389;-61
2022/06/30 04:17:33;;;;;;;8.67;6.00;;;;;;;;;;4989092;28;20764;-61
2022/06/30 04:20:00;;;;;;;10.80;5.70;;;;;;;;;;4989021;28;20062;-60
2022/06/30 04:22:26;;;;;;;6.93;5.50;;;;;;;;;;4989183;28;20061;-61
2022/06/30 04:24:52;;;;;;;9.27;6.40;;;;;;;;;;4989193;28;20046;-60
2022/06/30 04:27:18;;;;;;;10.50;5.93;;;;;;;;;;4988980;28;20122;-61
2022/06/30 04:29:44;;;;;;;9.63;6.83;;;;;;;;;;4989112;28;20050;-61
2022/06/30 04:34:55;;;;;;;9.83;6.63;;;;;;;;;;4987265;28;20050;-60
2022/06/30 04:37:21;;;;;;;8.37;6.03;;;;;;;;;;4987106;28;20523;-61
2022/06/30 04:39:47;;;;;;;8.17;6.13;;;;;;;;;;4987558;28;20933;-61
2022/06/30 04:42:13;;;;;;;7.37;6.00;;;;;;;;;;4986346;28;20050;-61
2022/06/30 04:44:39;;;;;;;8.70;6.83;;;;;;;;;;4987434;28;20551;-60
2022/06/30 04:47:05;;;;;;;8.77;5.50;;;;;;;;;;4987850;28;20182;-60
2022/06/30 04:49:31;;;;;;;9.70;6.13;;;;;;;;;;4987488;28;20054;-60
2022/06/30 04:51:57;;;;;;;8.90;5.83;;;;;;;;;;4987695;28;20038;-60
2022/06/30 04:54:23;;;;;;;7.50;5.83;;;;;;;;;;4987137;28;20048;-61
2022/06/30 04:56:49;;;;;;;11.80;6.60;;;;;;;;;;4987396;28;20133;-61
2022/06/30 04:59:16;;;;;;;9.80;6.00;;;;;;;;;;4987126;28;20050;-61
2022/06/30 05:01:42;;;;;;;11.53;6.60;;;;;;;;;;4987625;28;20073;-61
2022/06/30 05:04:08;;;;;;;7.60;5.70;;;;;;;;;;4987090;28;20043;-60
2022/06/30 05:06:34;;;;;;;8.33;6.73;;;;;;;;;;4987290;28;20042;-61
2022/06/30 05:09:00;;;;;;;7.77;5.83;;;;;;;;;;4987597;28;20053;-61
2022/06/30 05:11:26;;;;;;;10.63;6.27;;;;;;;;;;4986413;28;20084;-61
2022/06/30 05:13:52;;;;;;;7.73;6.70;;;;;;;;;;4987859;28;20077;-61
2022/06/30 05:16:18;;;;;;;8.30;6.20;;;;;;;;;;4988276;28;20106;-61
2022/06/30 05:18:44;;;;;;;9.53;5.67;;;;;;;;;;4988543;28;20149;-60
2022/06/30 05:21:10;;;;;;;9.40;6.20;;;;;;;;;;4988558;28;20141;-61
2022/06/30 05:23:36;;;;;;;8.70;6.10;;;;;;;;;;4988879;28;20046;-62
2022/06/30 05:28:47;;;;;;;7.03;6.17;;;;;;;;;;4988793;28;20050;-61
2022/06/30 05:31:13;;;;;;;7.77;5.97;;;;;;;;;;4988772;28;20054;-61
2022/06/30 05:33:39;;;;;;;6.90;6.03;;;;;;;;;;4988901;28;20054;-61
2022/06/30 05:36:06;;;;;;;8.43;6.40;;;;;;;;;;4988735;28;20042;-61
2022/06/30 05:38:32;;;;;;;7.40;5.90;;;;;;;;;;4988623;28;20428;-61
2022/06/30 05:40:58;;;;;;;10.77;6.50;;;;;;;;;;4988669;28;20431;-61
2022/06/30 05:43:24;;;;;;;7.47;6.53;;;;;;;;;;4988391;28;20567;-60
2022/06/30 05:45:53;;;;;;;7.97;5.83;;;;;;;;;;4987867;28;20046;-61
2022/06/30 05:48:19;;;;;;;8.00;6.30;;;;;;;;;;4991408;28;20452;-61
2022/06/30 05:50:45;;;;;;;10.20;6.40;;;;;;;;;;4991823;28;20050;-61
2022/06/30 05:53:11;;;;;;;6.60;5.67;;;;;;;;;;4991709;28;20506;-61
2022/06/30 05:55:37;;;;;;;7.90;6.50;;;;;;;;;;4990671;28;20049;-61
2022/06/30 05:58:04;;;;;;;9.37;6.20;;;;;;;;;;4989883;28;20108;-61
2022/06/30 06:00:30;;;;;;;6.80;6.10;;;;;;;;;;4989250;28;20109;-61
2022/06/30 06:02:57;;;;;;;8.43;6.70;;;;;;;;;;4990394;28;20046;-61
2022/06/30 06:05:24;;;;;;;8.97;8.07;;;;;;;;;;4987786;28;20042;-61
2022/06/30 06:07:51;;;;;;;9.63;7.07;;;;;;;;;;4990792;28;20050;-60
2022/06/30 06:10:17;;;;;;;8.17;7.00;;;;;;;;;;4990662;28;20829;-61
2022/06/30 06:12:44;;;;;;;7.50;6.17;;;;;;;;;;4990307;28;20053;-61
2022/06/30 06:15:13;;;;;;;7.27;6.57;;;;;;;;;;4990505;28;20043;-61
2022/06/30 06:17:48;;;;;;;9.47;7.13;;;;;;;;;;4989778;28;20046;-61
2022/06/30 06:20:16;;;;;;;10.90;6.57;;;;;;;;;;4989616;28;20077;-61
2022/06/30 06:22:42;;;;;;;8.60;7.30;;;;;;;;;;4968093;28;20158;-61
2022/06/30 06:25:09;;;;;;;7.77;6.73;;;;;;;;;;4970840;28;20054;-61
2022/06/30 06:27:35;;;;;;;8.73;7.20;;;;;;;;;;4970686;28;20105;-61
2022/06/30 06:30:05;;;;;;;12.67;8.10;;;;;;;;;;4970189;28;20895;-61
2022/06/30 06:32:31;;;;;;;10.97;6.57;;;;;;;;;;4970681;28;20042;-63
2022/06/30 06:34:57;;;;;;;10.07;6.63;;;;;;;;;;4953724;28;20047;-61
2022/06/30 06:37:23;;;;;;;9.40;7.03;;;;;;;;;;4967557;28;20038;-61
2022/06/30 06:39:49;;;;;;;12.60;8.40;;;;;;;;;;4970558;28;20160;-61
2022/06/30 06:42:15;;;;;;;9.93;6.87;;;;;;;;;;4969994;28;20043;-61
2022/06/30 06:44:41;;;;;;;10.07;8.20;;;;;;;;;;4970314;28;20050;-61
2022/06/30 06:47:08;;;;;;;10.50;7.97;;;;;;;;;;4970682;28;20053;-61
2022/06/30 06:49:34;;;;;;;8.57;6.90;;;;;;;;;;4970328;28;20070;-61
2022/06/30 06:52:00;;;;;;;7.97;7.17;;;;;;;;;;4969828;28;20130;-61
2022/06/30 06:54:26;;;;;;;8.43;7.47;;;;;;;;;;4971062;28;20054;-61
2022/06/30 06:56:52;;;;;;;10.13;8.27;;;;;;;;;;4970019;28;20066;-60
2022/06/30 06:59:18;;;;;;;10.23;7.67;;;;;;;;;;4969188;28;20054;-61
2022/06/30 07:01:45;;;;;;;8.53;7.63;;;;;;;;;;4970362;28;20051;-61
2022/06/30 07:04:11;;;;;;;9.07;7.47;;;;;;;;;;4969965;28;20035;-60
2022/06/30 07:06:37;;;;;;;10.17;9.07;;;;;;;;;;4970146;28;20050;-60
2022/06/30 07:09:03;;;;;;;10.33;8.60;;;;;;;;;;4970100;28;20105;-60
2022/06/30 07:11:29;;;;;;;12.80;8.77;;;;;;;;;;4969574;28;20123;-60
2022/06/30 07:13:55;;;;;;;12.23;8.90;;;;;;;;;;4969612;28;20058;-61
2022/06/30 07:16:22;;;;;;;9.23;8.23;;;;;;;;;;4970522;28;20073;-61
2022/06/30 07:18:48;;;;;;;9.23;8.40;;;;;;;;;;4969341;28;20043;-61
2022/06/30 07:21:15;;;;;;;14.10;9.40;;;;;;;;;;4972811;28;20058;-61
2022/06/30 07:23:42;;;;;;;11.10;9.10;;;;;;;;;;4990016;28;20042;-61
2022/06/30 07:26:11;;;;;;;13.57;9.43;;;;;;;;;;4983622;28;20054;-61
2022/06/30 07:28:37;;;;;;;11.47;8.83;;;;;;;;;;4980801;28;20157;-61
2022/06/30 07:31:03;;;;;;;14.10;9.97;;;;;;;;;;4970266;28;20038;-61
2022/06/30 07:33:29;;;;;;;10.73;9.20;;;;;;;;;;4970248;28;20066;-61
2022/06/30 07:35:55;;;;;;;10.13;9.03;;;;;;;;;;4970261;28;20038;-61
2022/06/30 07:38:21;;;;;;;10.10;9.10;;;;;;;;;;4970131;28;20051;-61
2022/06/30 07:40:48;;;;;;;11.80;8.73;;;;;;;;;;4969953;28;20054;-61
2022/06/30 07:43:14;;;;;;;10.60;9.40;;;;;;;;;;4970270;28;20046;-61
2022/06/30 07:45:40;;;;;;;10.87;9.03;;;;;;;;;;4970674;28;20831;-61
2022/06/30 07:48:06;;;;;;;10.53;9.37;;;;;;;;;;4974316;28;20035;-61
2022/06/30 07:50:32;;;;;;;9.20;8.30;;;;;;;;;;4983072;28;20042;-61
2022/06/30 07:52:58;;;;;;;9.00;7.90;;;;;;;;;;4989852;28;20137;-61
2022/06/30 07:55:24;;;;;;;9.60;8.03;;;;;;;;;;4989426;28;20046;-61
2022/06/30 07:57:50;;;;;;;11.82;8.80;;;;;;;;;;4989234;28;20054;-61
2022/06/30 08:00:16;;;;;;;11.68;8.68;;;;;;;;;;4989329;28;20046;-61
2022/06/30 08:02:43;;;;;;;9.10;8.10;;;;;;;;;;4989570;28;20097;-61
2022/06/30 08:05:09;;;;;;;9.70;8.63;;;;;;;;;;4983126;28;20108;-60
2022/06/30 08:07:36;;;;;;;9.82;7.30;;;;;;;;;;4989324;28;20054;-61
2022/06/30 08:10:02;;;;;;;10.77;8.68;;;;;;;;;;4989466;28;20108;-60
2022/06/30 08:12:28;;;;;;;11.60;8.27;;;;;;;;;;4989027;28;20042;-61
2022/06/30 08:14:54;;;;;;;9.43;8.35;;;;;;;;;;4990054;28;20046;-61
2022/06/30 08:17:20;;;;;;;10.27;8.40;;;;;;;;;;4989457;28;20444;-61
2022/06/30 08:19:47;;;;;;;9.35;8.38;;;;;;;;;;4989346;28;20125;-61
2022/06/30 08:22:13;;;;;;;10.32;9.25;;;;;;;;;;4983853;28;20061;-61
2022/06/30 08:24:39;;;;;;;9.20;8.23;;;;;;;;;;4969859;28;20055;-61
2022/06/30 08:27:05;;;;;;;9.35;8.45;;;;;;;;;;4969574;28;20073;-60
2022/06/30 08:29:32;;;;;;;9.20;8.13;;;;;;;;;;4969773;28;20058;-61
2022/06/30 08:31:59;;;;;;;10.00;9.00;;;;;;;;;;4969775;28;20130;-61
2022/06/30 08:34:25;;;;;;;10.93;9.82;;;;;;;;;;4969777;28;20047;-61
2022/06/30 08:36:51;;;;;;;11.63;10.52;;;;;;;;;;4969947;28;20051;-61
2022/06/30 08:42:03;;;;;;;10.55;9.45;;;;;;;;;;4974971;28;20042;-61
2022/06/30 08:44:31;;;;;;;13.98;10.00;;;;;;;;;;4985909;28;20057;-61
2022/06/30 08:46:58;;;;;;;10.02;8.23;;;;;;;;;;4988806;28;20046;-61
2022/06/30 08:49:25;;;;;;;13.45;10.27;;;;;;;;;;4988990;28;20062;-61
2022/06/30 08:51:52;;;;;;;10.25;9.23;;;;;;;;;;4988817;28;20112;-61
2022/06/30 08:54:20;;;;;;;12.38;9.27;;;;;;;;;;4987803;28;20056;-61
2022/06/30 08:56:46;;;;;;;11.00;10.00;;;;;;;;;;4985882;28;20472;-61
2022/06/30 08:59:13;;;;;;;10.93;9.82;;;;;;;;;;4986417;28;20051;-61
2022/06/30 09:01:40;;;;;;;10.80;9.70;;;;;;;;;;4986438;28;20048;-61
2022/06/30 09:04:07;;;;;;;14.55;10.20;;;;;;;;;;4986399;28;20042;-61
2022/06/30 09:06:33;;;;;;;11.10;9.98;;;;;;;;;;4985806;28;20050;-61
2022/06/30 09:08:59;;;;;;;10.60;9.50;;;;;;;;;;4986541;28;20057;-61
2022/06/30 09:11:43;;;;;;;9.90;8.90;;;;;;;;;;4988063;28;20043;-61
2022/06/30 09:14:09;;;;;;;11.20;10.20;;;;;;;;;;4988172;28;20050;-61
2022/06/30 09:16:36;;;;;;;10.32;9.40;;;;;;;;;;4987162;28;20057;-61
2022/06/30 09:19:03;;;;;;;12.15;10.77;;;;;;;;;;4988164;28;20069;-62
2022/06/30 09:21:29;;;;;;;11.32;10.23;;;;;;;;;;4988013;28;20527;-62
2022/06/30 09:23:55;;;;;;;11.38;9.18;;;;;;;;;;4991718;28;20074;-62
2022/06/30 09:26:22;;;;;;;9.35;8.23;;;;;;;;;;4991359;28;20054;-62
2022/06/30 09:28:55;;;;;;;10.18;9.13;;;;;;;;;;4991487;28;20038;-61
2022/06/30 09:31:42;;;;;;;12.55;9.65;;;;;;;;;;4992016;28;20046;-61
2022/06/30 09:34:19;;;;;;;9.85;8.95;;;;;;;;;;4991521;28;20069;-61
2022/06/30 09:36:46;;;;;;;9.95;9.05;;;;;;;;;;4991387;28;20271;-61
2022/06/30 09:39:13;;;;;;;11.23;9.65;;;;;;;;;;4990850;28;20389;-62
2022/06/30 09:41:40;;;;;;;12.68;8.80;;;;;;;;;;4991632;28;20496;-61
2022/06/30 09:44:07;;;;;;;10.38;9.38;;;;;;;;;;4991389;28;20038;-62
2022/06/30 09:46:36;;;;;;;9.85;8.95;;;;;;;;;;4991290;28;20123;-61
2022/06/30 09:49:03;;;;;;;14.63;8.85;;;;;;;;;;4991285;28;20519;-62
2022/06/30 09:51:32;;;;;;;10.48;9.52;;;;;;;;;;4990696;28;20052;-62
2022/06/30 09:54:11;;;;;;;11.73;8.25;;;;;;;;;;4991339;28;20050;-61
2022/06/30 09:56:38;;;;;;;9.13;8.10;;;;;;;;;;4991018;28;20046;-62
2022/06/30 09:59:07;;;;;;;10.15;9.15;;;;;;;;;;4991110;28;20058;-62
2022/06/30 10:01:52;;;;;;;9.15;8.27;;;;;;;;;;4990534;28;20459;-61
2022/06/30 10:04:18;;;;;;;8.50;7.40;;;;;;;;;;4991067;28;20073;-62
2022/06/30 10:06:44;;;;;;;9.77;8.05;;;;;;;;;;4990972;28;20043;-62
2022/06/30 10:09:11;;;;;;;12.70;8.32;;;;;;;;;;4991212;28;20046;-61
2022/06/30 10:11:38;;;;;;;12.75;7.88;;;;;;;;;;4990374;28;20511;-62
2022/06/30 10:14:04;;;;;;;10.43;7.22;;;;;;;;;;4990709;28;20065;-62
2022/06/30 10:16:30;;;;;;;7.13;6.30;;;;;;;;;;4990771;28;20516;-62
2022/06/30 10:18:57;;;;;;;10.52;7.53;;;;;;;;;;4990427;28;20535;-62
2022/06/30 10:21:23;;;;;;;10.52;6.03;;;;;;;;;;4990529;28;20125;-62
2022/06/30 10:23:52;;;;;;;7.72;6.63;;;;;;;;;;4990031;28;20046;-61
2022/06/30 10:29:04;;;;;;;7.30;6.03;;;;;;;;;;4990802;28;20054;-61
2022/06/30 10:31:34;;;;;;;6.47;4.75;;;;;;;;;;4990520;28;20485;-61
2022/06/30 10:34:05;;;;;;;11.20;8.57;;;;;;;;;;4990363;28;20042;-61
2022/06/30 10:36:33;;;;;;;12.25;10.25;;;;;;;;;;4989683;28;20042;-62
2022/06/30 10:39:02;;;;;;;8.82;7.53;;;;;;;;;;4990483;28;20050;-61
2022/06/30 10:41:28;;;;;;;10.95;8.93;;;;;;;;;;4990114;28;20100;-62
2022/06/30 10:44:03;;;;;;;9.85;8.95;;;;;;;;;;4990368;28;20208;-62
2022/06/30 10:46:29;;;;;;;10.18;9.13;;;;;;;;;;4989526;28;20137;-61
2022/06/30 10:48:55;;;;;;;10.15;7.32;;;;;;;;;;4990021;28;20077;-61
2022/06/30 10:51:22;;;;;;;9.80;8.80;;;;;;;;;;4990015;28;20057;-60
2022/06/30 10:53:50;;;;;;;11.38;8.02;;;;;;;;;;4989720;28;20444;-60
2022/06/30 10:56:16;;;;;;;8.55;6.60;;;;;;;;;;4989756;28;20049;-61
2022/06/30 10:59:14;;;;;;;11.45;6.43;;;;;;;;;;4989640;28;20053;-62
2022/06/30 11:01:59;;;;;;;7.45;5.28;;;;;;;;;;4947151;28;20058;-62
2022/06/30 11:04:25;;;;;;;6.63;4.30;;;;;;;;;;4972288;28;20524;-60
2022/06/30 11:07:21;;;;;;;8.13;4.35;;;;;;;;;;4989836;28;20060;-61
2022/06/30 11:09:47;;;;;;;9.00;6.22;;;;;;;;;;4973280;28;20062;-61
2022/06/30 11:12:14;;;;;;;10.43;7.18;;;;;;;;;;4989268;28;20054;-61
2022/06/30 11:14:48;;;;;;;8.13;6.75;;;;;;;;;;4981311;28;20093;-61
2022/06/30 11:17:17;;;;;;;9.30;5.43;;;;;;;;;;4989522;28;20054;-61
2022/06/30 11:19:44;;;;;;;9.05;6.40;;;;;;;;;;4989137;28;20053;-61
2022/06/30 11:22:15;;;;;;;7.70;5.32;;;;;;;;;;4989570;28;20088;-61
2022/06/30 11:24:42;;;;;;;7.95;5.13;;;;;;;;;;4989093;28;20050;-61
2022/06/30 11:27:18;;;;;;;7.47;3.83;;;;;;;;;;4989349;28;20452;-61
2022/06/30 11:29:46;;;;;;;8.07;3.83;;;;;;;;;;4989177;28;20057;-62
2022/06/30 11:32:13;;;;;;;5.28;2.95;;;;;;;;;;4989531;28;20054;-61
2022/06/30 11:34:40;;;;;;;6.47;2.50;;;;;;;;;;4988854;28;20089;-61
2022/06/30 11:37:09;;;;;;;6.10;2.30;;;;;;;;;;4989192;28;20063;-61
2022/06/30 11:39:35;;;;;;;5.13;2.58;;;;;;;;;;4988810;28;20440;-61
2022/06/30 11:42:11;;;;;;;5.20;2.10;;;;;;;;;;4989831;28;20073;-61
2022/06/30 11:44:38;;;;;;;7.65;1.95;;;;;;;;;;4988741;28;20034;-61
2022/06/30 11:47:05;;;;;;;5.82;1.77;;;;;;;;;;4989215;28;20070;-60
2022/06/30 11:49:40;;;;;;;4.88;1.80;;;;;;;;;;4989590;28;20046;-61
2022/06/30 11:52:11;;;;;;;5.43;2.25;;;;;;;;;;4989484;28;20053;-61
2022/06/30 11:54:37;;;;;;;6.47;1.73;;;;;;;;;;4988851;28;20058;-62
2022/06/30 11:57:03;;;;;;;5.82;1.52;;;;;;;;;;4989361;28;20235;-61
2022/06/30 11:59:29;;;;;;;7.70;2.58;;;;;;;;;;4989669;28;20085;-61
2022/06/30 12:02:00;;;;;;;5.93;2.60;;;;;;;;;;4989397;28;20128;-61
2022/06/30 12:04:26;;;;;;;8.00;2.35;;;;;;;;;;4989501;28;20112;-61
2022/06/30 12:06:52;;;;;;;6.15;3.08;;;;;;;;;;4988925;28;20050;-61
2022/06/30 12:09:19;;;;;;;10.70;3.50;;;;;;;;;;4989258;28;20144;-61
2022/06/30 12:11:48;;;;;;;7.20;3.90;;;;;;;;;;4968507;28;20051;-60
2022/06/30 12:14:15;;;;;;;5.50;4.32;;;;;;;;;;4988909;28;20133;-60
2022/06/30 12:16:41;;;;;;;7.35;4.38;;;;;;;;;;4989128;28;20081;-60
2022/06/30 12:19:07;;;;;;;6.90;3.20;;;;;;;;;;4988484;28;20046;-60
2022/06/30 12:21:33;;;;;;;4.03;2.70;;;;;;;;;;4988588;28;20062;-60
2022/06/30 12:24:00;;;;;;;6.50;3.80;;;;;;;;;;4988995;28;20061;-60
2022/06/30 12:26:26;;;;;;;7.00;3.47;;;;;;;;;;4988698;28;20449;-60
2022/06/30 12:28:55;;;;;;;7.80;5.13;;;;;;;;;;4989179;28;20588;-60
2022/06/30 12:31:28;;;;;;;6.85;4.70;;;;;;;;;;4988559;28;20047;-59
2022/06/30 12:33:55;;;;;;;9.18;7.07;;;;;;;;;;4988874;28;20072;-60
2022/06/30 12:36:21;;;;;;;8.15;6.72;;;;;;;;;;4988966;28;20416;-59
2022/06/30 12:38:48;;;;;;;10.98;7.20;;;;;;;;;;4988713;28;20591;-60
2022/06/30 12:41:14;;;;;;;8.60;6.45;;;;;;;;;;4988511;28;20050;-60
2022/06/30 12:43:51;;;;;;;8.30;5.78;;;;;;;;;;4988868;28;20042;-59
2022/06/30 12:46:18;;;;;;;8.55;4.88;;;;;;;;;;4989149;28;20593;-60
2022/06/30 12:48:50;;;;;;;6.32;5.05;;;;;;;;;;4989039;28;20042;-60
2022/06/30 12:51:36;;;;;;;6.07;3.92;;;;;;;;;;4989130;28;20070;-60
2022/06/30 12:54:03;;;;;;;11.05;5.30;;;;;;;;;;4988363;28;20054;-60
2022/06/30 12:56:29;;;;;;;9.38;4.90;;;;;;;;;;4991350;28;20046;-59
2022/06/30 12:58:55;;;;;;;9.27;6.63;;;;;;;;;;4992928;28;20054;-59
2022/06/30 13:01:23;;;;;;;10.60;6.10;;;;;;;;;;4993091;28;20104;-60
2022/06/30 13:03:54;;;;;;;6.95;6.15;;;;;;;;;;4992479;28;20495;-60
2022/06/30 13:06:21;;;;;;;8.60;6.00;;;;;;;;;;4993205;28;20088;-60
2022/06/30 13:08:47;;;;;;;12.02;5.18;;;;;;;;;;4992996;28;20053;-59
2022/06/30 13:11:15;;;;;;;8.65;4.60;;;;;;;;;;4993006;28;20053;-59
2022/06/30 13:13:42;;;;;;;9.48;4.85;;;;;;;;;;4992699;28;20509;-59
2022/06/30 13:16:08;;;;;;;6.03;4.22;;;;;;;;;;4992936;28;20050;-59
2022/06/30 13:18:34;;;;;;;7.35;4.32;;;;;;;;;;4992657;28;20061;-60
2022/06/30 13:21:00;;;;;;;7.32;4.32;;;;;;;;;;4992630;28;20085;-60
2022/06/30 13:23:26;;;;;;;8.18;4.47;;;;;;;;;;4992673;28;20051;-59
2022/06/30 13:25:52;;;;;;;9.10;4.20;;;;;;;;;;4992633;28;20051;-59
2022/06/30 13:28:18;;;;;;;11.48;3.95;;;;;;;;;;4992527;28;20408;-59
2022/06/30 13:30:45;;;;;;;6.53;4.30;;;;;;;;;;4992304;28;20050;-60
2022/06/30 13:33:11;;;;;;;6.65;3.13;;;;;;;;;;4992367;28;20057;-60
2022/06/30 13:35:37;;;;;;;4.82;3.25;;;;;;;;;;4992387;28;20101;-60
2022/06/30 13:38:03;;;;;;;7.97;3.35;;;;;;;;;;4992722;28;20156;-59
2022/06/30 13:40:29;;;;;;;8.75;3.58;;;;;;;;;;4985787;28;20522;-59
2022/06/30 13:42:56;;;;;;;6.80;3.08;;;;;;;;;;4979848;28;20046;-60
2022/06/30 13:45:22;;;;;;;6.35;3.65;;;;;;;;;;4981282;28;20386;-60
2022/06/30 13:47:48;;;;;;;7.32;4.22;;;;;;;;;;4981682;28;20469;-59
2022/06/30 13:50:14;;;;;;;5.85;3.10;;;;;;;;;;4979966;28;20050;-59
2022/06/30 13:52:40;;;;;;;10.05;2.85;;;;;;;;;;4981374;28;20046;-59
2022/06/30 13:55:06;;;;;;;6.38;3.60;;;;;;;;;;4981382;28;20070;-59
2022/06/30 13:57:32;;;;;;;6.55;3.60;;;;;;;;;;4979517;28;20047;-60
2022/06/30 13:59:58;;;;;;;9.82;4.05;;;;;;;;;;4979022;28;20038;-59
2022/06/30 14:02:24;;;;;;;7.93;3.50;;;;;;;;;;4980855;28;20060;-59
2022/06/30 14:04:50;;;;;;;6.63;3.47;;;;;;;;;;4980216;28;20053;-60
2022/06/30 14:07:16;;;;;;;5.47;3.70;;;;;;;;;;4982158;28;20416;-60
2022/06/30 14:09:42;;;;;;;6.80;3.45;;;;;;;;;;4979715;28;20058;-61
2022/06/30 14:12:08;;;;;;;5.32;3.80;;;;;;;;;;4963170;28;20052;-60
2022/06/30 14:14:34;;;;;;;6.63;3.70;;;;;;;;;;4981431;28;20049;-61
2022/06/30 14:17:00;;;;;;;10.02;3.53;;;;;;;;;;4979985;28;20051;-60
2022/06/30 14:19:26;;;;;;;6.78;3.65;;;;;;;;;;4980116;28;20069;-61
2022/06/30 14:21:53;;;;;;;9.52;4.05;;;;;;;;;;4981523;28;20109;-60
2022/06/30 14:24:20;;;;;;;12.10;4.40;;;;;;;;;;4979088;28;20162;-60
2022/06/30 14:26:46;;;;;;;5.38;2.88;;;;;;;;;;4980389;28;20117;-60
2022/06/30 14:29:13;;;;;;;7.97;3.10;;;;;;;;;;4981141;28;20053;-61
2022/06/30 14:31:39;;;;;;;7.10;3.53;;;;;;;;;;4976848;28;20047;-61
2022/06/30 14:34:05;;;;;;;7.10;4.15;;;;;;;;;;4980736;28;20045;-61
2022/06/30 14:36:31;;;;;;;8.32;3.67;;;;;;;;;;4980582;28;20047;-61
2022/06/30 14:38:57;;;;;;;7.57;3.30;;;;;;;;;;4984785;28;20139;-60
2022/06/30 14:44:11;;;;;;;7.07;3.63;;;;;;;;;;4990641;28;20054;-61
2022/06/30 14:46:37;;;;;;;9.63;3.90;;;;;;;;;;4989139;28;20054;-61
2022/06/30 14:49:04;;;;;;;6.63;3.42;;;;;;;;;;4978386;28;20441;-61
2022/06/30 14:51:30;;;;;;;5.82;3.30;;;;;;;;;;4978390;28;20050;-61
2022/06/30 14:53:56;;;;;;;8.75;3.15;;;;;;;;;;4981103;28;20085;-61